sensor_id;sensor_type;location;lat;lon;timestamp;temperature;humidity
25918;DHT22;13899;51.174;4.456;2024-01-30T00:01:52;10.20;99.90
25918;DHT22;13899;51.174;4.456;2024-01-30T00:04:18;10.30;99.90
25918;DHT22;13899;51.174;4.456;2024-01-30T00:06:44;10.60;99.90
25918;DHT22;13899;51.174;4.456;2024-01-30T00:09:10;10.70;99.90
25918;DHT22;13899;51.174;4.456;2024-01-30T00:11:36;10.70;99.90
25918;DHT22;13899;51.174;4.456;2024-01-30T00:14:02;10.70;99.90
25918;DHT22;13899;51.174;4.456;2024-01-30T00:16:28;10.50;99.90
25918;DHT22;13899;51.174;4.456;2024-01-30T00:18:54;10.40;99.90
25918;DHT22;13899;51.174;4.456;2024-01-30T00:21:21;10.50;99.90
25918;DHT22;13899;51.174;4.456;2024-01-30T00:23:47;10.60;99.90
25918;DHT22;13899;51.174;4.456;2024-01-30T00:26:13;10.50;99.90
25918;DHT22;13899;51.174;4.456;2024-01-30T00:28:40;10.50;99.90
25918;DHT22;13899;51.174;4.456;2024-01-30T00:31:06;10.50;99.90
25918;DHT22;13899;51.174;4.456;2024-01-30T00:33:31;10.50;99.90
25918;DHT22;13899;51.174;4.456;2024-01-30T00:35:57;10.60;99.90
25918;DHT22;13899;51.174;4.456;2024-01-30T00:38:23;10.60;99.90
25918;DHT22;13899;51.174;4.456;2024-01-30T00:40:49;10.60;99.90
25918;DHT22;13899;51.174;4.456;2024-01-30T00:43:15;10.60;99.90
25918;DHT22;13899;51.174;4.456;2024-01-30T00:45:41;10.60;99.90
25918;DHT22;13899;51.174;4.456;2024-01-30T00:48:07;10.70;99.90
25918;DHT22;13899;51.174;4.456;2024-01-30T00:50:32;10.70;99.90
25918;DHT22;13899;51.174;4.456;2024-01-30T00:52:58;10.60;99.90
25918;DHT22;13899;51.174;4.456;2024-01-30T00:55:23;10.60;99.90
25918;DHT22;13899;51.174;4.456;2024-01-30T00:57:49;10.60;99.90
25918;DHT22;13899;51.174;4.456;2024-01-30T01:00:15;10.60;99.90
25918;DHT22;13899;51.174;4.456;2024-01-30T01:02:42;10.70;99.90
25918;DHT22;13899;51.174;4.456;2024-01-30T01:05:08;10.60;99.90
25918;DHT22;13899;51.174;4.456;2024-01-30T01:07:34;10.60;99.90
25918;DHT22;13899;51.174;4.456;2024-01-30T01:10:00;10.60;99.90
25918;DHT22;13899;51.174;4.456;2024-01-30T01:12:25;10.70;99.90
25918;DHT22;13899;51.174;4.456;2024-01-30T01:14:51;10.70;99.90
25918;DHT22;13899;51.174;4.456;2024-01-30T01:17:17;10.70;99.90
25918;DHT22;13899;51.174;4.456;2024-01-30T01:19:44;10.70;99.90
25918;DHT22;13899;51.174;4.456;2024-01-30T01:22:09;10.70;99.90
25918;DHT22;13899;51.174;4.456;2024-01-30T01:24:36;10.70;99.90
25918;DHT22;13899;51.174;4.456;2024-01-30T01:27:01;10.70;99.90
25918;DHT22;13899;51.174;4.456;2024-01-30T01:29:27;10.60;99.90
25918;DHT22;13899;51.174;4.456;2024-01-30T01:31:56;10.60;99.90
25918;DHT22;13899;51.174;4.456;2024-01-30T01:34:22;10.60;99.90
25918;DHT22;13899;51.174;4.456;2024-01-30T01:36:49;10.60;99.90
25918;DHT22;13899;51.174;4.456;2024-01-30T01:39:15;10.60;99.90
25918;DHT22;13899;51.174;4.456;2024-01-30T01:41:41;10.60;99.90
25918;DHT22;13899;51.174;4.456;2024-01-30T01:44:07;10.60;99.90
25918;DHT22;13899;51.174;4.456;2024-01-30T01:46:34;10.60;99.90
25918;DHT22;13899;51.174;4.456;2024-01-30T01:49:04;10.50;99.90
25918;DHT22;13899;51.174;4.456;2024-01-30T01:51:33;10.50;99.90
25918;DHT22;13899;51.174;4.456;2024-01-30T01:54:04;10.50;99.90
25918;DHT22;13899;51.174;4.456;2024-01-30T01:56:31;10.50;99.90
25918;DHT22;13899;51.174;4.456;2024-01-30T01:59:00;10.50;99.90
25918;DHT22;13899;51.174;4.456;2024-01-30T02:01:29;10.40;99.90
25918;DHT22;13899;51.174;4.456;2024-01-30T02:03:55;10.50;99.90
25918;DHT22;13899;51.174;4.456;2024-01-30T02:06:21;10.40;99.90
25918;DHT22;13899;51.174;4.456;2024-01-30T02:08:46;10.40;99.90
25918;DHT22;13899;51.174;4.456;2024-01-30T02:11:12;10.50;99.90
25918;DHT22;13899;51.174;4.456;2024-01-30T02:13:38;10.40;99.90
25918;DHT22;13899;51.174;4.456;2024-01-30T02:16:04;10.40;99.90
25918;DHT22;13899;51.174;4.456;2024-01-30T02:18:30;10.40;99.90
25918;DHT22;13899;51.174;4.456;2024-01-30T02:20:58;10.40;99.90
25918;DHT22;13899;51.174;4.456;2024-01-30T02:23:27;10.50;99.90
25918;DHT22;13899;51.174;4.456;2024-01-30T02:25:53;10.50;99.90
25918;DHT22;13899;51.174;4.456;2024-01-30T02:28:19;10.50;99.90
25918;DHT22;13899;51.174;4.456;2024-01-30T02:30:45;10.50;99.90
25918;DHT22;13899;51.174;4.456;2024-01-30T02:33:11;10.40;99.90
25918;DHT22;13899;51.174;4.456;2024-01-30T02:35:37;10.40;99.90
25918;DHT22;13899;51.174;4.456;2024-01-30T02:38:03;10.40;99.90
25918;DHT22;13899;51.174;4.456;2024-01-30T02:40:28;10.50;99.90
25918;DHT22;13899;51.174;4.456;2024-01-30T02:42:54;10.40;99.90
25918;DHT22;13899;51.174;4.456;2024-01-30T02:45:20;10.40;99.90
25918;DHT22;13899;51.174;4.456;2024-01-30T02:47:46;10.50;99.90
25918;DHT22;13899;51.174;4.456;2024-01-30T02:50:11;10.50;99.90
25918;DHT22;13899;51.174;4.456;2024-01-30T02:52:37;10.50;99.90
25918;DHT22;13899;51.174;4.456;2024-01-30T02:55:03;10.50;99.90
25918;DHT22;13899;51.174;4.456;2024-01-30T02:57:29;10.40;99.90
25918;DHT22;13899;51.174;4.456;2024-01-30T02:59:55;10.50;99.90
25918;DHT22;13899;51.174;4.456;2024-01-30T03:02:21;10.50;99.90
25918;DHT22;13899;51.174;4.456;2024-01-30T03:04:46;10.60;99.90
25918;DHT22;13899;51.174;4.456;2024-01-30T03:07:12;10.70;99.90
25918;DHT22;13899;51.174;4.456;2024-01-30T03:09:38;10.70;99.90
25918;DHT22;13899;51.174;4.456;2024-01-30T03:12:04;10.70;99.90
25918;DHT22;13899;51.174;4.456;2024-01-30T03:14:31;10.80;99.90
25918;DHT22;13899;51.174;4.456;2024-01-30T03:16:57;10.80;99.90
25918;DHT22;13899;51.174;4.456;2024-01-30T03:19:23;10.80;99.90
25918;DHT22;13899;51.174;4.456;2024-01-30T03:21:48;10.80;99.90
25918;DHT22;13899;51.174;4.456;2024-01-30T03:24:14;10.80;99.90
25918;DHT22;13899;51.174;4.456;2024-01-30T03:26:39;10.80;99.90
25918;DHT22;13899;51.174;4.456;2024-01-30T03:29:05;10.90;99.90
25918;DHT22;13899;51.174;4.456;2024-01-30T03:31:31;10.90;99.90
25918;DHT22;13899;51.174;4.456;2024-01-30T03:33:56;10.80;99.90
25918;DHT22;13899;51.174;4.456;2024-01-30T03:36:22;10.90;99.90
25918;DHT22;13899;51.174;4.456;2024-01-30T03:38:47;10.90;99.90
25918;DHT22;13899;51.174;4.456;2024-01-30T03:41:13;10.80;99.90
25918;DHT22;13899;51.174;4.456;2024-01-30T03:43:39;10.90;99.90
25918;DHT22;13899;51.174;4.456;2024-01-30T03:46:04;10.90;99.90
25918;DHT22;13899;51.174;4.456;2024-01-30T03:48:30;10.90;99.90
25918;DHT22;13899;51.174;4.456;2024-01-30T03:50:56;10.90;99.90
25918;DHT22;13899;51.174;4.456;2024-01-30T03:53:22;10.90;99.90
25918;DHT22;13899;51.174;4.456;2024-01-30T03:55:48;11.00;99.90
25918;DHT22;13899;51.174;4.456;2024-01-30T03:58:13;10.90;99.90
25918;DHT22;13899;51.174;4.456;2024-01-30T04:00:39;10.90;99.90
25918;DHT22;13899;51.174;4.456;2024-01-30T04:03:06;10.80;99.90
25918;DHT22;13899;51.174;4.456;2024-01-30T04:05:32;10.80;99.90
25918;DHT22;13899;51.174;4.456;2024-01-30T04:07:57;10.80;99.90
25918;DHT22;13899;51.174;4.456;2024-01-30T04:10:24;10.90;99.90
25918;DHT22;13899;51.174;4.456;2024-01-30T04:12:50;10.80;99.90
25918;DHT22;13899;51.174;4.456;2024-01-30T04:15:17;10.90;99.90
25918;DHT22;13899;51.174;4.456;2024-01-30T04:17:43;10.80;99.90
25918;DHT22;13899;51.174;4.456;2024-01-30T04:20:16;10.90;99.90
25918;DHT22;13899;51.174;4.456;2024-01-30T04:22:46;10.90;99.90
25918;DHT22;13899;51.174;4.456;2024-01-30T04:25:13;10.90;99.90
25918;DHT22;13899;51.174;4.456;2024-01-30T04:27:39;10.90;99.90
25918;DHT22;13899;51.174;4.456;2024-01-30T04:30:05;10.90;99.90
25918;DHT22;13899;51.174;4.456;2024-01-30T04:32:32;10.90;99.90
25918;DHT22;13899;51.174;4.456;2024-01-30T04:34:57;10.90;99.90
25918;DHT22;13899;51.174;4.456;2024-01-30T04:37:23;11.00;99.90
25918;DHT22;13899;51.174;4.456;2024-01-30T04:39:50;11.10;99.90
25918;DHT22;13899;51.174;4.456;2024-01-30T04:42:16;11.00;99.90
25918;DHT22;13899;51.174;4.456;2024-01-30T04:44:41;11.00;99.90
25918;DHT22;13899;51.174;4.456;2024-01-30T04:47:07;11.00;99.90
25918;DHT22;13899;51.174;4.456;2024-01-30T04:49:34;11.00;99.90
25918;DHT22;13899;51.174;4.456;2024-01-30T04:52:00;11.00;99.90
25918;DHT22;13899;51.174;4.456;2024-01-30T04:54:26;11.00;99.90
25918;DHT22;13899;51.174;4.456;2024-01-30T04:56:51;11.00;99.90
25918;DHT22;13899;51.174;4.456;2024-01-30T04:59:17;11.00;99.90
25918;DHT22;13899;51.174;4.456;2024-01-30T05:01:42;11.00;99.90
25918;DHT22;13899;51.174;4.456;2024-01-30T05:04:09;11.00;99.90
25918;DHT22;13899;51.174;4.456;2024-01-30T05:06:34;11.00;99.90
25918;DHT22;13899;51.174;4.456;2024-01-30T05:09:00;11.00;99.90
25918;DHT22;13899;51.174;4.456;2024-01-30T05:11:26;11.00;99.90
25918;DHT22;13899;51.174;4.456;2024-01-30T05:13:51;11.00;99.90
25918;DHT22;13899;51.174;4.456;2024-01-30T05:16:17;11.00;99.90
25918;DHT22;13899;51.174;4.456;2024-01-30T05:18:43;11.00;99.90
25918;DHT22;13899;51.174;4.456;2024-01-30T05:21:09;11.00;99.90
25918;DHT22;13899;51.174;4.456;2024-01-30T05:23:35;11.00;99.90
25918;DHT22;13899;51.174;4.456;2024-01-30T05:26:01;11.10;99.90
25918;DHT22;13899;51.174;4.456;2024-01-30T05:28:29;11.00;99.90
25918;DHT22;13899;51.174;4.456;2024-01-30T05:30:56;11.00;99.90
25918;DHT22;13899;51.174;4.456;2024-01-30T05:33:22;11.00;99.90
25918;DHT22;13899;51.174;4.456;2024-01-30T05:35:47;11.10;99.90
25918;DHT22;13899;51.174;4.456;2024-01-30T05:38:15;11.10;99.90
25918;DHT22;13899;51.174;4.456;2024-01-30T05:40:41;11.00;99.90
25918;DHT22;13899;51.174;4.456;2024-01-30T05:43:06;11.00;99.90
25918;DHT22;13899;51.174;4.456;2024-01-30T05:45:33;11.10;99.90
25918;DHT22;13899;51.174;4.456;2024-01-30T05:48:00;11.10;99.90
25918;DHT22;13899;51.174;4.456;2024-01-30T05:50:26;11.10;99.90
25918;DHT22;13899;51.174;4.456;2024-01-30T05:52:52;11.10;99.90
25918;DHT22;13899;51.174;4.456;2024-01-30T05:55:18;11.10;99.90
25918;DHT22;13899;51.174;4.456;2024-01-30T05:57:43;11.10;99.90
25918;DHT22;13899;51.174;4.456;2024-01-30T06:00:09;11.10;99.90
25918;DHT22;13899;51.174;4.456;2024-01-30T06:02:35;11.00;99.90
25918;DHT22;13899;51.174;4.456;2024-01-30T06:05:01;11.10;99.90
25918;DHT22;13899;51.174;4.456;2024-01-30T06:07:26;11.00;99.90
25918;DHT22;13899;51.174;4.456;2024-01-30T06:09:52;11.00;99.90
25918;DHT22;13899;51.174;4.456;2024-01-30T06:12:17;11.00;99.90
25918;DHT22;13899;51.174;4.456;2024-01-30T06:14:43;11.00;99.90
25918;DHT22;13899;51.174;4.456;2024-01-30T06:17:09;11.00;99.90
25918;DHT22;13899;51.174;4.456;2024-01-30T06:19:35;11.00;99.90
25918;DHT22;13899;51.174;4.456;2024-01-30T06:22:00;11.00;99.90
25918;DHT22;13899;51.174;4.456;2024-01-30T06:24:26;11.00;99.90
25918;DHT22;13899;51.174;4.456;2024-01-30T06:26:53;10.90;99.90
25918;DHT22;13899;51.174;4.456;2024-01-30T06:29:18;11.00;99.90
25918;DHT22;13899;51.174;4.456;2024-01-30T06:31:44;11.00;99.90
25918;DHT22;13899;51.174;4.456;2024-01-30T06:34:10;11.00;99.90
25918;DHT22;13899;51.174;4.456;2024-01-30T06:36:37;11.10;99.90
25918;DHT22;13899;51.174;4.456;2024-01-30T06:39:03;11.10;99.90
25918;DHT22;13899;51.174;4.456;2024-01-30T06:41:29;11.10;99.90
25918;DHT22;13899;51.174;4.456;2024-01-30T06:43:55;11.10;99.90
25918;DHT22;13899;51.174;4.456;2024-01-30T06:46:21;11.10;99.90
25918;DHT22;13899;51.174;4.456;2024-01-30T06:48:47;11.20;99.90
25918;DHT22;13899;51.174;4.456;2024-01-30T06:51:12;11.20;99.90
25918;DHT22;13899;51.174;4.456;2024-01-30T06:53:38;11.20;99.90
25918;DHT22;13899;51.174;4.456;2024-01-30T06:56:04;11.20;99.90
25918;DHT22;13899;51.174;4.456;2024-01-30T06:58:30;11.20;99.90
25918;DHT22;13899;51.174;4.456;2024-01-30T07:00:56;11.30;99.90
25918;DHT22;13899;51.174;4.456;2024-01-30T07:03:22;11.40;99.90
25918;DHT22;13899;51.174;4.456;2024-01-30T07:05:47;11.40;99.90
25918;DHT22;13899;51.174;4.456;2024-01-30T07:08:15;11.40;99.90
25918;DHT22;13899;51.174;4.456;2024-01-30T07:10:43;11.40;99.90
25918;DHT22;13899;51.174;4.456;2024-01-30T07:13:09;11.40;99.90
25918;DHT22;13899;51.174;4.456;2024-01-30T07:15:35;11.50;99.90
25918;DHT22;13899;51.174;4.456;2024-01-30T07:18:02;11.50;99.90
25918;DHT22;13899;51.174;4.456;2024-01-30T07:20:28;11.50;99.90
25918;DHT22;13899;51.174;4.456;2024-01-30T07:22:56;11.50;99.90
25918;DHT22;13899;51.174;4.456;2024-01-30T07:25:21;11.50;99.90
25918;DHT22;13899;51.174;4.456;2024-01-30T07:27:54;11.50;99.90
25918;DHT22;13899;51.174;4.456;2024-01-30T07:30:20;11.50;99.90
25918;DHT22;13899;51.174;4.456;2024-01-30T07:32:46;11.50;99.90
25918;DHT22;13899;51.174;4.456;2024-01-30T07:35:13;11.50;99.90
25918;DHT22;13899;51.174;4.456;2024-01-30T07:37:39;11.40;99.90
25918;DHT22;13899;51.174;4.456;2024-01-30T07:40:05;11.50;99.90
25918;DHT22;13899;51.174;4.456;2024-01-30T07:42:32;11.50;99.90
25918;DHT22;13899;51.174;4.456;2024-01-30T07:44:58;11.50;99.90
25918;DHT22;13899;51.174;4.456;2024-01-30T07:47:23;11.50;99.90
25918;DHT22;13899;51.174;4.456;2024-01-30T07:49:49;11.50;99.90
25918;DHT22;13899;51.174;4.456;2024-01-30T07:52:14;11.50;99.90
25918;DHT22;13899;51.174;4.456;2024-01-30T07:54:40;11.50;99.90
25918;DHT22;13899;51.174;4.456;2024-01-30T07:57:06;11.50;99.90
25918;DHT22;13899;51.174;4.456;2024-01-30T07:59:31;11.50;99.90
25918;DHT22;13899;51.174;4.456;2024-01-30T08:01:57;11.60;99.90
25918;DHT22;13899;51.174;4.456;2024-01-30T08:04:22;11.60;99.90
25918;DHT22;13899;51.174;4.456;2024-01-30T08:06:48;11.60;99.90
25918;DHT22;13899;51.174;4.456;2024-01-30T08:09:14;11.50;99.90
25918;DHT22;13899;51.174;4.456;2024-01-30T08:11:40;11.50;99.90
25918;DHT22;13899;51.174;4.456;2024-01-30T08:14:05;11.60;99.90
25918;DHT22;13899;51.174;4.456;2024-01-30T08:16:31;11.60;99.90
25918;DHT22;13899;51.174;4.456;2024-01-30T08:18:56;11.70;99.90
25918;DHT22;13899;51.174;4.456;2024-01-30T08:21:23;11.60;99.90
25918;DHT22;13899;51.174;4.456;2024-01-30T08:23:48;11.60;99.90
25918;DHT22;13899;51.174;4.456;2024-01-30T08:26:14;11.60;99.90
25918;DHT22;13899;51.174;4.456;2024-01-30T08:28:40;11.60;99.90
25918;DHT22;13899;51.174;4.456;2024-01-30T08:31:05;11.60;99.90
25918;DHT22;13899;51.174;4.456;2024-01-30T08:33:31;11.60;99.90
25918;DHT22;13899;51.174;4.456;2024-01-30T08:35:57;11.60;99.90
25918;DHT22;13899;51.174;4.456;2024-01-30T08:38:22;11.70;99.90
25918;DHT22;13899;51.174;4.456;2024-01-30T08:40:48;11.70;99.90
25918;DHT22;13899;51.174;4.456;2024-01-30T08:43:13;11.70;99.90
25918;DHT22;13899;51.174;4.456;2024-01-30T08:45:40;11.60;99.90
25918;DHT22;13899;51.174;4.456;2024-01-30T08:48:06;11.60;99.90
25918;DHT22;13899;51.174;4.456;2024-01-30T08:50:33;11.60;99.90
25918;DHT22;13899;51.174;4.456;2024-01-30T08:52:58;11.60;99.90
25918;DHT22;13899;51.174;4.456;2024-01-30T08:55:24;11.70;99.90
25918;DHT22;13899;51.174;4.456;2024-01-30T08:57:50;11.70;99.90
25918;DHT22;13899;51.174;4.456;2024-01-30T09:00:17;11.70;99.90
25918;DHT22;13899;51.174;4.456;2024-01-30T09:02:44;11.60;99.90
25918;DHT22;13899;51.174;4.456;2024-01-30T09:05:10;11.60;99.90
25918;DHT22;13899;51.174;4.456;2024-01-30T09:07:35;11.60;99.90
25918;DHT22;13899;51.174;4.456;2024-01-30T09:10:01;11.60;99.90
25918;DHT22;13899;51.174;4.456;2024-01-30T09:12:27;11.70;99.90
25918;DHT22;13899;51.174;4.456;2024-01-30T09:14:52;11.70;99.90
25918;DHT22;13899;51.174;4.456;2024-01-30T09:17:18;11.60;99.90
25918;DHT22;13899;51.174;4.456;2024-01-30T09:19:45;11.60;99.90
25918;DHT22;13899;51.174;4.456;2024-01-30T09:22:10;11.60;99.90
25918;DHT22;13899;51.174;4.456;2024-01-30T09:24:36;11.60;99.90
25918;DHT22;13899;51.174;4.456;2024-01-30T09:27:02;11.70;99.90
25918;DHT22;13899;51.174;4.456;2024-01-30T09:29:27;11.70;99.90
25918;DHT22;13899;51.174;4.456;2024-01-30T09:31:54;11.70;99.90
25918;DHT22;13899;51.174;4.456;2024-01-30T09:34:19;11.70;99.90
25918;DHT22;13899;51.174;4.456;2024-01-30T09:36:45;11.70;99.90
25918;DHT22;13899;51.174;4.456;2024-01-30T09:39:11;11.70;99.90
25918;DHT22;13899;51.174;4.456;2024-01-30T09:41:49;11.80;99.90
25918;DHT22;13899;51.174;4.456;2024-01-30T09:44:20;11.80;99.90
25918;DHT22;13899;51.174;4.456;2024-01-30T09:46:47;11.70;99.90
25918;DHT22;13899;51.174;4.456;2024-01-30T09:49:13;11.60;99.90
25918;DHT22;13899;51.174;4.456;2024-01-30T09:51:40;11.60;99.90
25918;DHT22;13899;51.174;4.456;2024-01-30T09:54:08;11.60;99.90
25918;DHT22;13899;51.174;4.456;2024-01-30T09:56:33;11.60;99.90
25918;DHT22;13899;51.174;4.456;2024-01-30T09:58:59;11.60;99.90
25918;DHT22;13899;51.174;4.456;2024-01-30T10:01:25;11.70;99.90
25918;DHT22;13899;51.174;4.456;2024-01-30T10:03:51;11.70;99.90
25918;DHT22;13899;51.174;4.456;2024-01-30T10:06:19;11.70;99.90
25918;DHT22;13899;51.174;4.456;2024-01-30T10:08:46;11.60;99.90
25918;DHT22;13899;51.174;4.456;2024-01-30T10:11:12;11.70;99.90
25918;DHT22;13899;51.174;4.456;2024-01-30T10:13:38;11.60;99.90
25918;DHT22;13899;51.174;4.456;2024-01-30T10:16:04;11.60;99.90
25918;DHT22;13899;51.174;4.456;2024-01-30T10:18:32;11.60;99.90
25918;DHT22;13899;51.174;4.456;2024-01-30T10:20:59;11.60;99.90
25918;DHT22;13899;51.174;4.456;2024-01-30T10:23:24;11.60;99.90
25918;DHT22;13899;51.174;4.456;2024-01-30T10:25:51;11.60;99.90
25918;DHT22;13899;51.174;4.456;2024-01-30T10:28:17;11.60;99.90
25918;DHT22;13899;51.174;4.456;2024-01-30T10:30:43;11.60;99.90
25918;DHT22;13899;51.174;4.456;2024-01-30T10:33:09;11.70;99.90
25918;DHT22;13899;51.174;4.456;2024-01-30T10:35:34;11.70;99.90
25918;DHT22;13899;51.174;4.456;2024-01-30T10:38:00;11.70;99.90
25918;DHT22;13899;51.174;4.456;2024-01-30T10:40:29;11.60;99.90
25918;DHT22;13899;51.174;4.456;2024-01-30T10:42:56;11.70;99.90
25918;DHT22;13899;51.174;4.456;2024-01-30T10:45:26;11.60;99.90
25918;DHT22;13899;51.174;4.456;2024-01-30T10:47:55;11.60;99.90
25918;DHT22;13899;51.174;4.456;2024-01-30T10:50:24;11.60;99.90
25918;DHT22;13899;51.174;4.456;2024-01-30T10:52:50;11.50;99.90
25918;DHT22;13899;51.174;4.456;2024-01-30T10:55:16;11.50;99.90
25918;DHT22;13899;51.174;4.456;2024-01-30T10:57:43;11.40;99.90
25918;DHT22;13899;51.174;4.456;2024-01-30T11:00:11;11.50;99.90
25918;DHT22;13899;51.174;4.456;2024-01-30T11:02:43;11.50;99.90
25918;DHT22;13899;51.174;4.456;2024-01-30T11:05:10;11.30;99.90
25918;DHT22;13899;51.174;4.456;2024-01-30T11:07:36;11.30;99.90
25918;DHT22;13899;51.174;4.456;2024-01-30T11:10:04;11.30;99.90
25918;DHT22;13899;51.174;4.456;2024-01-30T11:12:32;11.30;99.90
25918;DHT22;13899;51.174;4.456;2024-01-30T11:15:03;11.40;99.90
25918;DHT22;13899;51.174;4.456;2024-01-30T11:17:43;11.70;99.90
25918;DHT22;13899;51.174;4.456;2024-01-30T11:22:47;12.70;99.90
25918;DHT22;13899;51.174;4.456;2024-01-30T11:25:17;13.20;99.90
25918;DHT22;13899;51.174;4.456;2024-01-30T11:27:44;14.10;99.90
25918;DHT22;13899;51.174;4.456;2024-01-30T11:30:10;13.70;99.90
25918;DHT22;13899;51.174;4.456;2024-01-30T11:32:36;12.40;99.90
25918;DHT22;13899;51.174;4.456;2024-01-30T11:35:05;12.20;99.90
25918;DHT22;13899;51.174;4.456;2024-01-30T11:37:31;12.30;99.90
25918;DHT22;13899;51.174;4.456;2024-01-30T11:39:58;13.00;99.90
25918;DHT22;13899;51.174;4.456;2024-01-30T11:42:24;13.90;99.90
25918;DHT22;13899;51.174;4.456;2024-01-30T11:44:53;13.90;99.90
25918;DHT22;13899;51.174;4.456;2024-01-30T11:47:18;15.20;99.90
25918;DHT22;13899;51.174;4.456;2024-01-30T11:49:44;15.20;99.90
25918;DHT22;13899;51.174;4.456;2024-01-30T11:52:10;13.70;99.90
25918;DHT22;13899;51.174;4.456;2024-01-30T11:54:39;12.50;99.90
25918;DHT22;13899;51.174;4.456;2024-01-30T11:57:05;12.50;99.90
25918;DHT22;13899;51.174;4.456;2024-01-30T11:59:31;12.80;99.90
25918;DHT22;13899;51.174;4.456;2024-01-30T12:01:56;13.10;99.90
25918;DHT22;13899;51.174;4.456;2024-01-30T12:04:22;12.50;99.90
25918;DHT22;13899;51.174;4.456;2024-01-30T12:06:51;12.50;99.90
25918;DHT22;13899;51.174;4.456;2024-01-30T12:09:17;12.70;99.90
25918;DHT22;13899;51.174;4.456;2024-01-30T12:11:46;12.80;99.90
25918;DHT22;13899;51.174;4.456;2024-01-30T12:14:13;12.80;99.90
25918;DHT22;13899;51.174;4.456;2024-01-30T12:16:41;12.10;99.90
25918;DHT22;13899;51.174;4.456;2024-01-30T12:19:09;12.00;99.90
25918;DHT22;13899;51.174;4.456;2024-01-30T12:21:35;11.80;99.90
25918;DHT22;13899;51.174;4.456;2024-01-30T12:24:01;11.90;99.90
25918;DHT22;13899;51.174;4.456;2024-01-30T12:26:27;11.90;99.90
25918;DHT22;13899;51.174;4.456;2024-01-30T12:28:56;11.60;99.90
25918;DHT22;13899;51.174;4.456;2024-01-30T12:31:28;11.80;99.90
25918;DHT22;13899;51.174;4.456;2024-01-30T12:33:54;11.90;99.90
25918;DHT22;13899;51.174;4.456;2024-01-30T12:36:21;11.80;99.90
25918;DHT22;13899;51.174;4.456;2024-01-30T12:38:47;11.80;99.90
25918;DHT22;13899;51.174;4.456;2024-01-30T12:41:13;11.70;99.90
25918;DHT22;13899;51.174;4.456;2024-01-30T12:43:39;11.70;99.90
25918;DHT22;13899;51.174;4.456;2024-01-30T12:46:05;11.60;99.90
25918;DHT22;13899;51.174;4.456;2024-01-30T12:48:31;11.80;99.90
25918;DHT22;13899;51.174;4.456;2024-01-30T12:50:56;11.90;99.90
25918;DHT22;13899;51.174;4.456;2024-01-30T12:53:22;11.60;99.90
25918;DHT22;13899;51.174;4.456;2024-01-30T12:55:48;11.50;99.90
25918;DHT22;13899;51.174;4.456;2024-01-30T12:58:15;11.60;99.90
25918;DHT22;13899;51.174;4.456;2024-01-30T13:00:41;11.50;99.90
25918;DHT22;13899;51.174;4.456;2024-01-30T13:03:09;11.50;99.90
25918;DHT22;13899;51.174;4.456;2024-01-30T13:05:35;11.70;99.90
25918;DHT22;13899;51.174;4.456;2024-01-30T13:08:01;11.40;99.90
25918;DHT22;13899;51.174;4.456;2024-01-30T13:10:26;11.40;99.90
25918;DHT22;13899;51.174;4.456;2024-01-30T13:12:53;11.40;99.90
25918;DHT22;13899;51.174;4.456;2024-01-30T13:15:18;11.50;99.90
25918;DHT22;13899;51.174;4.456;2024-01-30T13:17:44;11.60;99.90
25918;DHT22;13899;51.174;4.456;2024-01-30T13:20:13;11.50;99.90
25918;DHT22;13899;51.174;4.456;2024-01-30T13:22:43;11.40;99.90
25918;DHT22;13899;51.174;4.456;2024-01-30T13:25:08;11.10;99.90
25918;DHT22;13899;51.174;4.456;2024-01-30T13:27:34;11.00;99.90
25918;DHT22;13899;51.174;4.456;2024-01-30T13:30:00;11.00;99.90
25918;DHT22;13899;51.174;4.456;2024-01-30T13:32:25;11.00;99.90
25918;DHT22;13899;51.174;4.456;2024-01-30T13:34:51;10.90;99.90
25918;DHT22;13899;51.174;4.456;2024-01-30T13:37:17;10.70;99.90
25918;DHT22;13899;51.174;4.456;2024-01-30T13:39:42;10.70;99.90
25918;DHT22;13899;51.174;4.456;2024-01-30T13:42:08;10.60;99.90
25918;DHT22;13899;51.174;4.456;2024-01-30T13:44:35;10.40;99.90
25918;DHT22;13899;51.174;4.456;2024-01-30T13:47:01;10.30;99.90
25918;DHT22;13899;51.174;4.456;2024-01-30T13:49:27;10.40;99.90
25918;DHT22;13899;51.174;4.456;2024-01-30T13:51:53;10.60;99.90
25918;DHT22;13899;51.174;4.456;2024-01-30T13:54:18;10.60;99.90
25918;DHT22;13899;51.174;4.456;2024-01-30T13:56:44;10.70;99.90
25918;DHT22;13899;51.174;4.456;2024-01-30T13:59:10;10.60;99.90
25918;DHT22;13899;51.174;4.456;2024-01-30T14:01:35;10.60;99.90
25918;DHT22;13899;51.174;4.456;2024-01-30T14:04:01;10.80;99.90
25918;DHT22;13899;51.174;4.456;2024-01-30T14:06:27;10.70;99.90
25918;DHT22;13899;51.174;4.456;2024-01-30T14:08:52;10.40;99.90
25918;DHT22;13899;51.174;4.456;2024-01-30T14:11:19;10.20;99.90
25918;DHT22;13899;51.174;4.456;2024-01-30T14:13:44;10.30;99.90
25918;DHT22;13899;51.174;4.456;2024-01-30T14:16:10;10.20;99.90
25918;DHT22;13899;51.174;4.456;2024-01-30T14:18:36;10.30;99.90
25918;DHT22;13899;51.174;4.456;2024-01-30T14:21:01;10.40;99.90
25918;DHT22;13899;51.174;4.456;2024-01-30T14:23:28;10.30;99.90
25918;DHT22;13899;51.174;4.456;2024-01-30T14:25:53;10.30;99.90
25918;DHT22;13899;51.174;4.456;2024-01-30T14:28:19;10.50;99.90
25918;DHT22;13899;51.174;4.456;2024-01-30T14:30:44;10.40;99.90
25918;DHT22;13899;51.174;4.456;2024-01-30T14:33:10;10.20;99.90
25918;DHT22;13899;51.174;4.456;2024-01-30T14:35:36;10.10;99.90
25918;DHT22;13899;51.174;4.456;2024-01-30T14:38:01;10.10;99.90
25918;DHT22;13899;51.174;4.456;2024-01-30T14:40:29;9.90;99.90
25918;DHT22;13899;51.174;4.456;2024-01-30T14:42:55;9.70;99.90
25918;DHT22;13899;51.174;4.456;2024-01-30T14:45:22;9.70;99.90
25918;DHT22;13899;51.174;4.456;2024-01-30T14:47:47;9.90;99.90
25918;DHT22;13899;51.174;4.456;2024-01-30T14:50:13;10.00;99.90
25918;DHT22;13899;51.174;4.456;2024-01-30T14:52:42;10.10;99.90
25918;DHT22;13899;51.174;4.456;2024-01-30T14:55:07;9.80;99.90
25918;DHT22;13899;51.174;4.456;2024-01-30T14:57:34;9.80;99.90
25918;DHT22;13899;51.174;4.456;2024-01-30T15:00:00;9.80;99.90
25918;DHT22;13899;51.174;4.456;2024-01-30T15:02:26;9.80;99.90
25918;DHT22;13899;51.174;4.456;2024-01-30T15:04:51;9.90;99.90
25918;DHT22;13899;51.174;4.456;2024-01-30T15:07:18;10.00;99.90
25918;DHT22;13899;51.174;4.456;2024-01-30T15:09:44;10.00;99.90
25918;DHT22;13899;51.174;4.456;2024-01-30T15:12:09;10.20;99.90
25918;DHT22;13899;51.174;4.456;2024-01-30T15:14:35;10.20;99.90
25918;DHT22;13899;51.174;4.456;2024-01-30T15:17:01;10.10;99.90
25918;DHT22;13899;51.174;4.456;2024-01-30T15:19:27;10.20;99.90
25918;DHT22;13899;51.174;4.456;2024-01-30T15:21:52;10.20;99.90
25918;DHT22;13899;51.174;4.456;2024-01-30T15:24:18;10.30;99.90
25918;DHT22;13899;51.174;4.456;2024-01-30T15:26:46;10.30;99.90